sensor_id;sensor_type;location;lat;lon;timestamp;temperature;humidity
65864;SHT30;52639;51.180;20.460;2022-08-21T00:03:00;18.49;82.98
65864;SHT30;52639;51.180;20.460;2022-08-21T00:07:03;18.48;82.92
65864;SHT30;52639;51.180;20.460;2022-08-21T00:11:06;18.42;83.02
65864;SHT30;52639;51.180;20.460;2022-08-21T00:15:14;18.38;83.17
65864;SHT30;52639;51.180;20.460;2022-08-21T00:19:18;18.32;83.21
65864;SHT30;52639;51.180;20.460;2022-08-21T00:23:22;18.25;83.36
65864;SHT30;52639;51.180;20.460;2022-08-21T00:27:25;18.25;83.35
65864;SHT30;52639;51.180;20.460;2022-08-21T00:31:27;18.25;83.34
65864;SHT30;52639;51.180;20.460;2022-08-21T00:35:34;18.22;83.43
65864;SHT30;52639;51.180;20.460;2022-08-21T00:39:37;18.24;83.38
65864;SHT30;52639;51.180;20.460;2022-08-21T00:43:43;18.25;83.50
65864;SHT30;52639;51.180;20.460;2022-08-21T00:47:45;18.28;83.39
65864;SHT30;52639;51.180;20.460;2022-08-21T00:51:52;18.32;83.28
65864;SHT30;52639;51.180;20.460;2022-08-21T00:55:56;18.39;83.13
65864;SHT30;52639;51.180;20.460;2022-08-21T01:00:01;18.40;83.04
65864;SHT30;52639;51.180;20.460;2022-08-21T01:04:03;18.39;82.99
65864;SHT30;52639;51.180;20.460;2022-08-21T01:08:10;18.39;83.02
65864;SHT30;52639;51.180;20.460;2022-08-21T01:12:13;18.38;83.02
65864;SHT30;52639;51.180;20.460;2022-08-21T01:16:19;18.45;82.96
65864;SHT30;52639;51.180;20.460;2022-08-21T01:20:23;18.45;83.00
65864;SHT30;52639;51.180;20.460;2022-08-21T01:24:27;18.43;83.15
65864;SHT30;52639;51.180;20.460;2022-08-21T01:28:33;18.43;83.13
65864;SHT30;52639;51.180;20.460;2022-08-21T01:32:37;18.46;83.12
65864;SHT30;52639;51.180;20.460;2022-08-21T01:36:39;18.52;82.98
65864;SHT30;52639;51.180;20.460;2022-08-21T01:40:43;18.48;82.96
65864;SHT30;52639;51.180;20.460;2022-08-21T01:44:46;18.46;82.85
65864;SHT30;52639;51.180;20.460;2022-08-21T01:48:49;18.39;83.10
65864;SHT30;52639;51.180;20.460;2022-08-21T01:52:52;18.28;83.41
65864;SHT30;52639;51.180;20.460;2022-08-21T01:56:56;18.22;83.72
65864;SHT30;52639;51.180;20.460;2022-08-21T02:01:00;18.12;83.92
65864;SHT30;52639;51.180;20.460;2022-08-21T02:05:04;18.06;84.07
65864;SHT30;52639;51.180;20.460;2022-08-21T02:09:09;18.01;84.21
65864;SHT30;52639;51.180;20.460;2022-08-21T02:13:16;18.01;84.27
65864;SHT30;52639;51.180;20.460;2022-08-21T02:17:19;18.02;84.27
65864;SHT30;52639;51.180;20.460;2022-08-21T02:21:21;18.04;84.25
65864;SHT30;52639;51.180;20.460;2022-08-21T02:25:25;18.02;84.35
65864;SHT30;52639;51.180;20.460;2022-08-21T02:29:29;18.01;84.40
65864;SHT30;52639;51.180;20.460;2022-08-21T02:33:32;18.01;84.47
65864;SHT30;52639;51.180;20.460;2022-08-21T02:37:43;17.92;84.69
65864;SHT30;52639;51.180;20.460;2022-08-21T02:41:45;17.89;84.67
65864;SHT30;52639;51.180;20.460;2022-08-21T02:45:50;17.85;84.81
65864;SHT30;52639;51.180;20.460;2022-08-21T02:49:53;17.81;84.90
65864;SHT30;52639;51.180;20.460;2022-08-21T02:53:56;17.77;84.97
65864;SHT30;52639;51.180;20.460;2022-08-21T02:57:58;17.72;85.15
65864;SHT30;52639;51.180;20.460;2022-08-21T03:02:03;17.74;85.19
65864;SHT30;52639;51.180;20.460;2022-08-21T03:06:07;17.70;85.19
65864;SHT30;52639;51.180;20.460;2022-08-21T03:10:10;17.64;85.31
65864;SHT30;52639;51.180;20.460;2022-08-21T03:14:12;17.67;85.35
65864;SHT30;52639;51.180;20.460;2022-08-21T03:18:17;17.61;85.37
65864;SHT30;52639;51.180;20.460;2022-08-21T03:22:19;17.52;85.57
65864;SHT30;52639;51.180;20.460;2022-08-21T03:26:22;17.52;85.73
65864;SHT30;52639;51.180;20.460;2022-08-21T03:30:25;17.51;85.67
65864;SHT30;52639;51.180;20.460;2022-08-21T03:34:29;17.48;85.64
65864;SHT30;52639;51.180;20.460;2022-08-21T03:38:39;17.44;85.71
65864;SHT30;52639;51.180;20.460;2022-08-21T03:42:42;17.45;85.61
65864;SHT30;52639;51.180;20.460;2022-08-21T03:46:46;17.58;85.30
65864;SHT30;52639;51.180;20.460;2022-08-21T03:50:52;17.64;85.08
65864;SHT30;52639;51.180;20.460;2022-08-21T03:54:54;17.67;84.95
65864;SHT30;52639;51.180;20.460;2022-08-21T03:58:57;17.75;84.77
65864;SHT30;52639;51.180;20.460;2022-08-21T04:03:00;17.79;84.71
65864;SHT30;52639;51.180;20.460;2022-08-21T04:07:04;17.85;84.62
65864;SHT30;52639;51.180;20.460;2022-08-21T04:11:07;17.92;84.70
65864;SHT30;52639;51.180;20.460;2022-08-21T04:15:11;17.94;84.68
65864;SHT30;52639;51.180;20.460;2022-08-21T04:19:14;18.04;84.62
65864;SHT30;52639;51.180;20.460;2022-08-21T04:23:19;18.12;84.54
65864;SHT30;52639;51.180;20.460;2022-08-21T04:27:33;18.22;84.47
65864;SHT30;52639;51.180;20.460;2022-08-21T04:31:37;18.26;84.47
65864;SHT30;52639;51.180;20.460;2022-08-21T04:35:39;18.36;84.41
65864;SHT30;52639;51.180;20.460;2022-08-21T04:39:44;18.48;84.24
65864;SHT30;52639;51.180;20.460;2022-08-21T04:43:46;18.67;83.93
65864;SHT30;52639;51.180;20.460;2022-08-21T04:47:50;18.91;83.46
65864;SHT30;52639;51.180;20.460;2022-08-21T04:51:53;19.14;82.89
65864;SHT30;52639;51.180;20.460;2022-08-21T04:56:00;19.35;82.35
65864;SHT30;52639;51.180;20.460;2022-08-21T05:00:06;19.54;81.88
65864;SHT30;52639;51.180;20.460;2022-08-21T05:04:12;19.76;81.35
65864;SHT30;52639;51.180;20.460;2022-08-21T05:08:18;19.98;80.88
65864;SHT30;52639;51.180;20.460;2022-08-21T05:12:23;20.18;80.47
65864;SHT30;52639;51.180;20.460;2022-08-21T05:16:25;20.43;79.92
65864;SHT30;52639;51.180;20.460;2022-08-21T05:20:29;20.69;79.27
65864;SHT30;52639;51.180;20.460;2022-08-21T05:24:32;20.90;78.88
65864;SHT30;52639;51.180;20.460;2022-08-21T05:28:36;21.03;78.53
65864;SHT30;52639;51.180;20.460;2022-08-21T05:32:38;21.18;78.26
65864;SHT30;52639;51.180;20.460;2022-08-21T05:36:41;21.30;78.11
65864;SHT30;52639;51.180;20.460;2022-08-21T05:40:44;21.42;77.80
65864;SHT30;52639;51.180;20.460;2022-08-21T05:44:48;21.52;77.49
65864;SHT30;52639;51.180;20.460;2022-08-21T05:48:51;21.74;77.11
65864;SHT30;52639;51.180;20.460;2022-08-21T05:52:54;21.89;76.77
65864;SHT30;52639;51.180;20.460;2022-08-21T05:56:56;22.23;75.93
65864;SHT30;52639;51.180;20.460;2022-08-21T06:01:02;22.50;75.14
65864;SHT30;52639;51.180;20.460;2022-08-21T06:05:05;22.63;74.92
65864;SHT30;52639;51.180;20.460;2022-08-21T06:09:09;22.87;74.44
65864;SHT30;52639;51.180;20.460;2022-08-21T06:13:11;23.11;73.98
65864;SHT30;52639;51.180;20.460;2022-08-21T06:17:16;23.32;73.52
65864;SHT30;52639;51.180;20.460;2022-08-21T06:27:03;24.20;71.73
65864;SHT30;52639;51.180;20.460;2022-08-21T06:31:38;24.49;71.15
65864;SHT30;52639;51.180;20.460;2022-08-21T06:41:39;24.52;70.85
65864;SHT30;52639;51.180;20.460;2022-08-21T06:45:41;24.49;70.87
65864;SHT30;52639;51.180;20.460;2022-08-21T06:49:45;24.56;71.02
65864;SHT30;52639;51.180;20.460;2022-08-21T06:53:47;24.46;71.08
65864;SHT30;52639;51.180;20.460;2022-08-21T06:57:51;24.53;70.62
65864;SHT30;52639;51.180;20.460;2022-08-21T07:01:54;24.63;70.21
65864;SHT30;52639;51.180;20.460;2022-08-21T07:05:57;24.83;69.80
65864;SHT30;52639;51.180;20.460;2022-08-21T07:09:59;25.34;68.62
65864;SHT30;52639;51.180;20.460;2022-08-21T07:14:04;25.90;67.19
65864;SHT30;52639;51.180;20.460;2022-08-21T07:18:06;26.41;66.14
65864;SHT30;52639;51.180;20.460;2022-08-21T07:22:09;27.07;64.86
65864;SHT30;52639;51.180;20.460;2022-08-21T07:26:13;28.09;62.63
65864;SHT30;52639;51.180;20.460;2022-08-21T07:30:17;28.60;62.07
65864;SHT30;52639;51.180;20.460;2022-08-21T07:34:20;29.18;61.20
65864;SHT30;52639;51.180;20.460;2022-08-21T07:38:23;29.95;59.59
65864;SHT30;52639;51.180;20.460;2022-08-21T07:42:25;30.57;58.10
65864;SHT30;52639;51.180;20.460;2022-08-21T07:46:35;30.50;58.24
65864;SHT30;52639;51.180;20.460;2022-08-21T07:50:38;30.37;57.79
65864;SHT30;52639;51.180;20.460;2022-08-21T07:54:42;29.92;58.06
65864;SHT30;52639;51.180;20.460;2022-08-21T07:58:50;29.55;57.85
65864;SHT30;52639;51.180;20.460;2022-08-21T08:07:15;29.34;57.28
65864;SHT30;52639;51.180;20.460;2022-08-21T08:11:19;29.17;57.59
65864;SHT30;52639;51.180;20.460;2022-08-21T08:15:27;29.17;57.09
65864;SHT30;52639;51.180;20.460;2022-08-21T08:19:50;29.68;56.26
65864;SHT30;52639;51.180;20.460;2022-08-21T08:24:08;29.79;55.92
65864;SHT30;52639;51.180;20.460;2022-08-21T08:29:01;29.61;56.35
65864;SHT30;52639;51.180;20.460;2022-08-21T08:34:08;29.41;56.93
65864;SHT30;52639;51.180;20.460;2022-08-21T08:39:05;29.62;56.14
65864;SHT30;52639;51.180;20.460;2022-08-21T08:43:47;29.42;56.64
65864;SHT30;52639;51.180;20.460;2022-08-21T09:03:14;28.65;57.10
65864;SHT30;52639;51.180;20.460;2022-08-21T09:07:43;28.61;57.17
65864;SHT30;52639;51.180;20.460;2022-08-21T09:12:16;28.63;56.90
65864;SHT30;52639;51.180;20.460;2022-08-21T09:16:49;28.63;57.12
65864;SHT30;52639;51.180;20.460;2022-08-21T09:21:18;28.77;57.24
65864;SHT30;52639;51.180;20.460;2022-08-21T09:25:38;29.01;56.22
65864;SHT30;52639;51.180;20.460;2022-08-21T09:29:59;29.04;56.11
65864;SHT30;52639;51.180;20.460;2022-08-21T09:34:27;28.98;56.05
65864;SHT30;52639;51.180;20.460;2022-08-21T09:38:51;28.94;56.22
65864;SHT30;52639;51.180;20.460;2022-08-21T09:43:14;28.81;56.83
65864;SHT30;52639;51.180;20.460;2022-08-21T09:47:31;28.84;56.58
65864;SHT30;52639;51.180;20.460;2022-08-21T09:51:56;28.88;56.17
65864;SHT30;52639;51.180;20.460;2022-08-21T09:56:24;28.91;56.52
65864;SHT30;52639;51.180;20.460;2022-08-21T10:01:17;28.44;57.33
65864;SHT30;52639;51.180;20.460;2022-08-21T10:05:32;27.99;58.32
65864;SHT30;52639;51.180;20.460;2022-08-21T10:09:36;27.63;58.84
65864;SHT30;52639;51.180;20.460;2022-08-21T10:13:50;27.44;59.42
65864;SHT30;52639;51.180;20.460;2022-08-21T10:18:08;27.51;59.53
65864;SHT30;52639;51.180;20.460;2022-08-21T10:22:29;27.61;59.37
65864;SHT30;52639;51.180;20.460;2022-08-21T10:26:47;27.82;58.51
65864;SHT30;52639;51.180;20.460;2022-08-21T10:30:59;27.98;58.00
65864;SHT30;52639;51.180;20.460;2022-08-21T10:35:12;28.00;57.96
65864;SHT30;52639;51.180;20.460;2022-08-21T10:39:32;28.02;57.58
65864;SHT30;52639;51.180;20.460;2022-08-21T10:43:55;28.12;57.33
65864;SHT30;52639;51.180;20.460;2022-08-21T10:48:12;28.06;58.15
65864;SHT30;52639;51.180;20.460;2022-08-21T10:52:41;28.09;57.73
65864;SHT30;52639;51.180;20.460;2022-08-21T10:56:59;28.02;58.17
65864;SHT30;52639;51.180;20.460;2022-08-21T11:01:22;28.12;57.91
65864;SHT30;52639;51.180;20.460;2022-08-21T11:05:48;28.17;57.85
65864;SHT30;52639;51.180;20.460;2022-08-21T11:10:08;28.24;57.58
65864;SHT30;52639;51.180;20.460;2022-08-21T11:14:34;28.32;57.52
65864;SHT30;52639;51.180;20.460;2022-08-21T11:18:43;28.09;57.40
65864;SHT30;52639;51.180;20.460;2022-08-21T11:22:51;27.99;57.22
65864;SHT30;52639;51.180;20.460;2022-08-21T11:27:01;28.00;57.08
65864;SHT30;52639;51.180;20.460;2022-08-21T11:31:19;28.16;56.60
65864;SHT30;52639;51.180;20.460;2022-08-21T11:35:33;28.37;55.74
65864;SHT30;52639;51.180;20.460;2022-08-21T11:39:45;28.49;55.59
65864;SHT30;52639;51.180;20.460;2022-08-21T11:43:55;28.33;55.71
65864;SHT30;52639;51.180;20.460;2022-08-21T11:48:05;28.43;55.48
65864;SHT30;52639;51.180;20.460;2022-08-21T11:52:16;28.47;55.38
65864;SHT30;52639;51.180;20.460;2022-08-21T11:56:24;28.40;55.35
65864;SHT30;52639;51.180;20.460;2022-08-21T12:00:30;28.46;55.20
65864;SHT30;52639;51.180;20.460;2022-08-21T12:04:35;28.44;55.25
65864;SHT30;52639;51.180;20.460;2022-08-21T12:08:58;28.12;55.74
65864;SHT30;52639;51.180;20.460;2022-08-21T12:13:08;27.93;56.28
65864;SHT30;52639;51.180;20.460;2022-08-21T12:17:18;27.68;57.32
65864;SHT30;52639;51.180;20.460;2022-08-21T12:21:24;27.44;57.53
65864;SHT30;52639;51.180;20.460;2022-08-21T12:25:37;27.37;57.56
65864;SHT30;52639;51.180;20.460;2022-08-21T12:29:46;27.08;58.91
65864;SHT30;52639;51.180;20.460;2022-08-21T12:33:54;26.93;58.97
65864;SHT30;52639;51.180;20.460;2022-08-21T12:38:04;27.14;59.10
65864;SHT30;52639;51.180;20.460;2022-08-21T12:42:19;26.90;59.06
65864;SHT30;52639;51.180;20.460;2022-08-21T12:46:29;26.97;59.56
65864;SHT30;52639;51.180;20.460;2022-08-21T12:50:37;26.97;59.28
65864;SHT30;52639;51.180;20.460;2022-08-21T12:54:42;27.05;59.48
65864;SHT30;52639;51.180;20.460;2022-08-21T12:58:50;27.07;59.49
65864;SHT30;52639;51.180;20.460;2022-08-21T13:02:53;27.27;58.45
65864;SHT30;52639;51.180;20.460;2022-08-21T13:06:58;27.33;58.25
65864;SHT30;52639;51.180;20.460;2022-08-21T13:11:04;27.25;58.69
65864;SHT30;52639;51.180;20.460;2022-08-21T13:15:09;27.23;58.79
65864;SHT30;52639;51.180;20.460;2022-08-21T13:19:17;27.24;58.64
65864;SHT30;52639;51.180;20.460;2022-08-21T13:23:45;27.45;57.69
65864;SHT30;52639;51.180;20.460;2022-08-21T13:27:58;27.41;57.91
65864;SHT30;52639;51.180;20.460;2022-08-21T13:32:04;27.37;57.60
65864;SHT30;52639;51.180;20.460;2022-08-21T13:36:10;27.37;57.60
65864;SHT30;52639;51.180;20.460;2022-08-21T13:40:16;27.34;57.51
65864;SHT30;52639;51.180;20.460;2022-08-21T13:44:20;27.35;57.33
65864;SHT30;52639;51.180;20.460;2022-08-21T13:48:33;27.31;57.37
65864;SHT30;52639;51.180;20.460;2022-08-21T13:52:48;27.15;57.39
65864;SHT30;52639;51.180;20.460;2022-08-21T13:56:52;27.08;57.31
65864;SHT30;52639;51.180;20.460;2022-08-21T14:00:56;27.01;57.31
65864;SHT30;52639;51.180;20.460;2022-08-21T14:05:01;27.01;57.51
65864;SHT30;52639;51.180;20.460;2022-08-21T14:09:09;26.95;57.94
65864;SHT30;52639;51.180;20.460;2022-08-21T14:13:29;26.87;58.09
65864;SHT30;52639;51.180;20.460;2022-08-21T14:17:36;26.76;58.17
65864;SHT30;52639;51.180;20.460;2022-08-21T14:21:42;26.67;58.31
65864;SHT30;52639;51.180;20.460;2022-08-21T14:25:45;26.64;58.23
65864;SHT30;52639;51.180;20.460;2022-08-21T14:29:48;26.60;58.29
65864;SHT30;52639;51.180;20.460;2022-08-21T14:33:50;26.63;58.74
65864;SHT30;52639;51.180;20.460;2022-08-21T14:37:55;26.51;59.15
65864;SHT30;52639;51.180;20.460;2022-08-21T14:41:58;26.47;58.92
65864;SHT30;52639;51.180;20.460;2022-08-21T14:46:01;26.46;58.90
65864;SHT30;52639;51.180;20.460;2022-08-21T14:50:05;26.50;58.80
65864;SHT30;52639;51.180;20.460;2022-08-21T14:54:09;26.44;58.93
65864;SHT30;52639;51.180;20.460;2022-08-21T14:58:12;26.43;59.00
65864;SHT30;52639;51.180;20.460;2022-08-21T15:02:14;26.41;59.11
65864;SHT30;52639;51.180;20.460;2022-08-21T15:06:17;26.36;59.16
65864;SHT30;52639;51.180;20.460;2022-08-21T15:10:25;26.32;59.34
65864;SHT30;52639;51.180;20.460;2022-08-21T15:14:41;26.29;59.55
65864;SHT30;52639;51.180;20.460;2022-08-21T15:18:46;26.20;59.75
65864;SHT30;52639;51.180;20.460;2022-08-21T15:22:49;26.10;59.88
65864;SHT30;52639;51.180;20.460;2022-08-21T15:26:54;26.03;60.28
65864;SHT30;52639;51.180;20.460;2022-08-21T15:31:04;25.92;60.50
65864;SHT30;52639;51.180;20.460;2022-08-21T15:35:07;25.85;60.87
65864;SHT30;52639;51.180;20.460;2022-08-21T15:39:10;25.69;61.05
65864;SHT30;52639;51.180;20.460;2022-08-21T15:43:26;25.65;60.96
65864;SHT30;52639;51.180;20.460;2022-08-21T15:47:35;25.55;61.12
65864;SHT30;52639;51.180;20.460;2022-08-21T15:51:38;25.41;61.41
65864;SHT30;52639;51.180;20.460;2022-08-21T15:55:40;25.21;61.90
65864;SHT30;52639;51.180;20.460;2022-08-21T15:59:47;25.04;62.91
65864;SHT30;52639;51.180;20.460;2022-08-21T16:03:52;24.86;63.92
65864;SHT30;52639;51.180;20.460;2022-08-21T16:07:56;24.63;64.60
65864;SHT30;52639;51.180;20.460;2022-08-21T16:11:59;24.50;65.33
65864;SHT30;52639;51.180;20.460;2022-08-21T16:16:04;24.40;65.98
65864;SHT30;52639;51.180;20.460;2022-08-21T16:20:11;24.25;66.55
65864;SHT30;52639;51.180;20.460;2022-08-21T16:24:14;24.10;67.07
65864;SHT30;52639;51.180;20.460;2022-08-21T16:28:18;23.98;67.68
65864;SHT30;52639;51.180;20.460;2022-08-21T16:32:22;23.88;68.45
65864;SHT30;52639;51.180;20.460;2022-08-21T16:36:25;23.69;69.07
65864;SHT30;52639;51.180;20.460;2022-08-21T16:40:28;23.51;69.71
65864;SHT30;52639;51.180;20.460;2022-08-21T16:44:31;23.35;70.25
65864;SHT30;52639;51.180;20.460;2022-08-21T16:48:37;23.28;70.46
65864;SHT30;52639;51.180;20.460;2022-08-21T16:52:39;23.15;70.73
65864;SHT30;52639;51.180;20.460;2022-08-21T16:56:42;23.00;71.19
65864;SHT30;52639;51.180;20.460;2022-08-21T17:00:45;22.88;71.39
65864;SHT30;52639;51.180;20.460;2022-08-21T17:04:49;22.80;71.33
65864;SHT30;52639;51.180;20.460;2022-08-21T17:08:52;22.80;71.09
65864;SHT30;52639;51.180;20.460;2022-08-21T17:12:55;22.77;71.11
65864;SHT30;52639;51.180;20.460;2022-08-21T17:17:00;22.67;71.39
65864;SHT30;52639;51.180;20.460;2022-08-21T17:21:12;22.63;71.64
65864;SHT30;52639;51.180;20.460;2022-08-21T17:25:16;22.54;71.60
65864;SHT30;52639;51.180;20.460;2022-08-21T17:29:32;22.42;72.01
65864;SHT30;52639;51.180;20.460;2022-08-21T17:33:40;22.33;72.14
65864;SHT30;52639;51.180;20.460;2022-08-21T17:37:51;22.28;72.17
65864;SHT30;52639;51.180;20.460;2022-08-21T17:41:55;22.20;72.22
65864;SHT30;52639;51.180;20.460;2022-08-21T17:45:59;22.13;72.29
65864;SHT30;52639;51.180;20.460;2022-08-21T17:50:02;22.02;72.51
65864;SHT30;52639;51.180;20.460;2022-08-21T17:54:07;21.95;72.80
65864;SHT30;52639;51.180;20.460;2022-08-21T17:58:12;21.89;72.92
65864;SHT30;52639;51.180;20.460;2022-08-21T18:02:16;21.85;72.83
65864;SHT30;52639;51.180;20.460;2022-08-21T18:06:19;21.79;72.85
65864;SHT30;52639;51.180;20.460;2022-08-21T18:10:23;21.77;72.97
65864;SHT30;52639;51.180;20.460;2022-08-21T18:14:28;21.66;73.02
65864;SHT30;52639;51.180;20.460;2022-08-21T18:18:37;21.59;73.26
65864;SHT30;52639;51.180;20.460;2022-08-21T18:22:42;21.54;73.32
65864;SHT30;52639;51.180;20.460;2022-08-21T18:26:46;21.45;73.59
65864;SHT30;52639;51.180;20.460;2022-08-21T18:30:49;21.38;73.66
65864;SHT30;52639;51.180;20.460;2022-08-21T18:34:55;21.34;73.83
65864;SHT30;52639;51.180;20.460;2022-08-21T18:38:59;21.30;73.86
65864;SHT30;52639;51.180;20.460;2022-08-21T18:43:05;21.25;73.97
65864;SHT30;52639;51.180;20.460;2022-08-21T18:47:12;21.17;74.17
65864;SHT30;52639;51.180;20.460;2022-08-21T18:51:20;21.15;74.18
65864;SHT30;52639;51.180;20.460;2022-08-21T18:55:22;21.11;74.28
65864;SHT30;52639;51.180;20.460;2022-08-21T18:59:28;21.05;74.42
65864;SHT30;52639;51.180;20.460;2022-08-21T19:03:31;20.98;74.37
65864;SHT30;52639;51.180;20.460;2022-08-21T19:07:34;20.97;74.43
65864;SHT30;52639;51.180;20.460;2022-08-21T19:11:38;20.87;74.61
65864;SHT30;52639;51.180;20.460;2022-08-21T19:15:43;20.85;74.71
65864;SHT30;52639;51.180;20.460;2022-08-21T19:19:50;20.77;75.02
65864;SHT30;52639;51.180;20.460;2022-08-21T19:24:07;20.66;75.27
65864;SHT30;52639;51.180;20.460;2022-08-21T19:28:20;20.69;75.41
65864;SHT30;52639;51.180;20.460;2022-08-21T19:32:24;20.67;75.32
65864;SHT30;52639;51.180;20.460;2022-08-21T19:36:27;20.69;75.24
65864;SHT30;52639;51.180;20.460;2022-08-21T19:40:30;20.70;75.09
65864;SHT30;52639;51.180;20.460;2022-08-21T19:44:35;20.70;75.21
65864;SHT30;52639;51.180;20.460;2022-08-21T19:48:39;20.69;75.34
65864;SHT30;52639;51.180;20.460;2022-08-21T19:52:41;20.59;75.71
65864;SHT30;52639;51.180;20.460;2022-08-21T19:56:44;20.47;76.10
65864;SHT30;52639;51.180;20.460;2022-08-21T20:00:47;20.36;76.43
65864;SHT30;52639;51.180;20.460;2022-08-21T20:04:51;20.20;76.88
65864;SHT30;52639;51.180;20.460;2022-08-21T20:08:54;20.12;77.13
65864;SHT30;52639;51.180;20.460;2022-08-21T20:12:56;20.06;77.16
65864;SHT30;52639;51.180;20.460;2022-08-21T20:17:03;20.00;77.20
65864;SHT30;52639;51.180;20.460;2022-08-21T20:21:09;19.95;77.25
65864;SHT30;52639;51.180;20.460;2022-08-21T20:25:13;19.92;77.14
65864;SHT30;52639;51.180;20.460;2022-08-21T20:29:18;19.90;77.14
65864;SHT30;52639;51.180;20.460;2022-08-21T20:33:21;19.88;77.05
65864;SHT30;52639;51.180;20.460;2022-08-21T20:37:25;19.85;77.16
65864;SHT30;52639;51.180;20.460;2022-08-21T20:41:27;19.81;77.22
65864;SHT30;52639;51.180;20.460;2022-08-21T20:45:33;19.72;77.44
65864;SHT30;52639;51.180;20.460;2022-08-21T20:49:40;19.62;77.70
65864;SHT30;52639;51.180;20.460;2022-08-21T20:53:51;19.45;78.17
65864;SHT30;52639;51.180;20.460;2022-08-21T20:58:01;19.31;78.53
65864;SHT30;52639;51.180;20.460;2022-08-21T21:02:14;19.18;78.88
65864;SHT30;52639;51.180;20.460;2022-08-21T21:06:20;19.08;79.07
65864;SHT30;52639;51.180;20.460;2022-08-21T21:10:33;18.90;79.46
65864;SHT30;52639;51.180;20.460;2022-08-21T21:14:40;18.80;79.58
65864;SHT30;52639;51.180;20.460;2022-08-21T21:18:47;18.71;79.72
65864;SHT30;52639;51.180;20.460;2022-08-21T21:22:55;18.60;79.91
65864;SHT30;52639;51.180;20.460;2022-08-21T21:27:05;18.50;80.12
65864;SHT30;52639;51.180;20.460;2022-08-21T21:31:10;18.43;80.13
65864;SHT30;52639;51.180;20.460;2022-08-21T21:35:14;18.32;80.42
65864;SHT30;52639;51.180;20.460;2022-08-21T21:39:32;18.26;80.64
65864;SHT30;52639;51.180;20.460;2022-08-21T21:48:11;18.06;80.89
65864;SHT30;52639;51.180;20.460;2022-08-21T21:52:34;17.99;81.01
65864;SHT30;52639;51.180;20.460;2022-08-21T21:56:46;17.91;81.17
65864;SHT30;52639;51.180;20.460;2022-08-21T22:01:01;17.75;81.48
65864;SHT30;52639;51.180;20.460;2022-08-21T22:05:08;17.67;81.60
65864;SHT30;52639;51.180;20.460;2022-08-21T22:09:17;17.62;81.71
65864;SHT30;52639;51.180;20.460;2022-08-21T22:13:39;17.51;81.88
65864;SHT30;52639;51.180;20.460;2022-08-21T22:18:04;17.47;81.93
65864;SHT30;52639;51.180;20.460;2022-08-21T22:22:12;17.37;82.02
65864;SHT30;52639;51.180;20.460;2022-08-21T22:26:18;17.27;82.23
65864;SHT30;52639;51.180;20.460;2022-08-21T22:30:37;17.26;82.24
65864;SHT30;52639;51.180;20.460;2022-08-21T22:34:41;17.16;82.33
65864;SHT30;52639;51.180;20.460;2022-08-21T22:38:48;17.04;82.63
65864;SHT30;52639;51.180;20.460;2022-08-21T22:42:57;16.96;82.89
65864;SHT30;52639;51.180;20.460;2022-08-21T22:47:19;16.93;82.94
65864;SHT30;52639;51.180;20.460;2022-08-21T22:51:29;16.89;83.01
65864;SHT30;52639;51.180;20.460;2022-08-21T22:55:36;16.84;82.93
65864;SHT30;52639;51.180;20.460;2022-08-21T22:59:51;16.79;83.13
65864;SHT30;52639;51.180;20.460;2022-08-21T23:03:56;16.77;83.07
65864;SHT30;52639;51.180;20.460;2022-08-21T23:08:17;16.72;83.19
65864;SHT30;52639;51.180;20.460;2022-08-21T23:12:24;16.63;83.20
65864;SHT30;52639;51.180;20.460;2022-08-21T23:16:48;16.57;83.53
65864;SHT30;52639;51.180;20.460;2022-08-21T23:20:58;16.52;83.56
65864;SHT30;52639;51.180;20.460;2022-08-21T23:25:13;16.49;83.63
65864;SHT30;52639;51.180;20.460;2022-08-21T23:29:25;16.41;83.80
65864;SHT30;52639;51.180;20.460;2022-08-21T23:38:03;16.16;84.21
65864;SHT30;52639;51.180;20.460;2022-08-21T23:42:20;16.13;84.21
65864;SHT30;52639;51.180;20.460;2022-08-21T23:46:42;16.08;84.23
65864;SHT30;52639;51.180;20.460;2022-08-21T23:50:50;16.01;84.29
65864;SHT30;52639;51.180;20.460;2022-08-21T23:55:13;15.95;84.44
65864;SHT30;52639;51.180;20.460;2022-08-21T23:59:33;15.95;84.39
